sensor_id;sensor_type;location;lat;lon;timestamp;pressure;altitude;pressure_sealevel;temperature;humidity
16580;BME280;8402;51.466;6.806;2023-12-07T00:02:07;101698.66;;;2.40;100.00
16580;BME280;8402;51.466;6.806;2023-12-07T00:04:39;101699.13;;;2.37;100.00
16580;BME280;8402;51.466;6.806;2023-12-07T00:07:12;101701.44;;;2.34;100.00
16580;BME280;8402;51.466;6.806;2023-12-07T00:09:41;101696.34;;;2.32;100.00
16580;BME280;8402;51.466;6.806;2023-12-07T00:12:11;101698.44;;;2.30;100.00
16580;BME280;8402;51.466;6.806;2023-12-07T00:14:41;101700.53;;;2.28;100.00
16580;BME280;8402;51.466;6.806;2023-12-07T00:17:11;101707.16;;;2.26;100.00
16580;BME280;8402;51.466;6.806;2023-12-07T00:19:42;101703.09;;;2.23;100.00
16580;BME280;8402;51.466;6.806;2023-12-07T00:22:15;101706.84;;;2.22;100.00
16580;BME280;8402;51.466;6.806;2023-12-07T00:24:45;101702.50;;;2.21;100.00
16580;BME280;8402;51.466;6.806;2023-12-07T00:27:15;101701.94;;;2.19;100.00
16580;BME280;8402;51.466;6.806;2023-12-07T00:29:45;101700.31;;;2.18;100.00
16580;BME280;8402;51.466;6.806;2023-12-07T00:32:15;101696.25;;;2.15;100.00
16580;BME280;8402;51.466;6.806;2023-12-07T00:34:45;101698.31;;;2.13;100.00
16580;BME280;8402;51.466;6.806;2023-12-07T00:37:18;101690.53;;;2.12;100.00
16580;BME280;8402;51.466;6.806;2023-12-07T00:39:48;101689.97;;;2.10;100.00
16580;BME280;8402;51.466;6.806;2023-12-07T00:42:18;101685.66;;;2.09;100.00
16580;BME280;8402;51.466;6.806;2023-12-07T00:44:49;101693.44;;;2.10;100.00
16580;BME280;8402;51.466;6.806;2023-12-07T00:47:19;101698.56;;;2.12;100.00
16580;BME280;8402;51.466;6.806;2023-12-07T00:49:49;101695.31;;;2.10;100.00
16580;BME280;8402;51.466;6.806;2023-12-07T00:52:21;101698.00;;;2.10;100.00
16580;BME280;8402;51.466;6.806;2023-12-07T00:54:52;101694.75;;;2.08;100.00
16580;BME280;8402;51.466;6.806;2023-12-07T00:57:37;101697.88;;;2.05;100.00
16580;BME280;8402;51.466;6.806;2023-12-07T01:00:08;101701.03;;;2.02;100.00
16580;BME280;8402;51.466;6.806;2023-12-07T01:02:40;101697.75;;;2.00;100.00
16580;BME280;8402;51.466;6.806;2023-12-07T01:05:10;101701.97;;;1.96;100.00
16580;BME280;8402;51.466;6.806;2023-12-07T01:07:42;101704.06;;;1.93;100.00
16580;BME280;8402;51.466;6.806;2023-12-07T01:10:12;101709.41;;;1.93;100.00
16580;BME280;8402;51.466;6.806;2023-12-07T01:12:42;101709.84;;;1.90;100.00
16580;BME280;8402;51.466;6.806;2023-12-07T01:15:12;101704.38;;;1.85;100.00
16580;BME280;8402;51.466;6.806;2023-12-07T01:17:42;101713.94;;;1.81;100.00
16580;BME280;8402;51.466;6.806;2023-12-07T01:20:12;101702.66;;;1.79;100.00
16580;BME280;8402;51.466;6.806;2023-12-07T01:22:45;101701.00;;;1.78;100.00
16580;BME280;8402;51.466;6.806;2023-12-07T01:25:13;101705.34;;;1.79;100.00
16580;BME280;8402;51.466;6.806;2023-12-07T01:27:50;101706.84;;;1.75;100.00
16580;BME280;8402;51.466;6.806;2023-12-07T01:30:20;101718.00;;;1.72;100.00
16580;BME280;8402;51.466;6.806;2023-12-07T01:32:50;101713.47;;;1.73;100.00
16580;BME280;8402;51.466;6.806;2023-12-07T01:35:20;101718.09;;;1.77;100.00
16580;BME280;8402;51.466;6.806;2023-12-07T01:37:52;101708.59;;;1.81;100.00
16580;BME280;8402;51.466;6.806;2023-12-07T01:40:22;101714.28;;;1.85;100.00
16580;BME280;8402;51.466;6.806;2023-12-07T01:42:53;101716.75;;;1.86;100.00
16580;BME280;8402;51.466;6.806;2023-12-07T01:45:23;101705.78;;;1.88;100.00
16580;BME280;8402;51.466;6.806;2023-12-07T01:47:53;101708.72;;;1.86;100.00
16580;BME280;8402;51.466;6.806;2023-12-07T01:50:26;101722.31;;;1.85;100.00
16580;BME280;8402;51.466;6.806;2023-12-07T01:53:01;101720.69;;;1.84;100.00
16580;BME280;8402;51.466;6.806;2023-12-07T01:55:35;101724.78;;;1.86;100.00
16580;BME280;8402;51.466;6.806;2023-12-07T01:58:06;101725.59;;;1.87;100.00
16580;BME280;8402;51.466;6.806;2023-12-07T02:00:36;101732.56;;;1.88;100.00
16580;BME280;8402;51.466;6.806;2023-12-07T02:03:06;101728.59;;;1.90;100.00
16580;BME280;8402;51.466;6.806;2023-12-07T02:05:37;101734.75;;;1.91;100.00
16580;BME280;8402;51.466;6.806;2023-12-07T02:08:09;101727.22;;;1.88;100.00
16580;BME280;8402;51.466;6.806;2023-12-07T02:10:40;101732.78;;;1.86;100.00
16580;BME280;8402;51.466;6.806;2023-12-07T02:13:10;101732.78;;;1.86;100.00
16580;BME280;8402;51.466;6.806;2023-12-07T02:15:40;101736.50;;;1.85;100.00
16580;BME280;8402;51.466;6.806;2023-12-07T02:18:15;101733.00;;;1.85;100.00
16580;BME280;8402;51.466;6.806;2023-12-07T02:20:51;101735.47;;;1.86;100.00
16580;BME280;8402;51.466;6.806;2023-12-07T02:23:29;101741.97;;;1.90;100.00
16580;BME280;8402;51.466;6.806;2023-12-07T02:26:13;101748.03;;;1.98;100.00
16580;BME280;8402;51.466;6.806;2023-12-07T02:28:50;101748.41;;;2.01;100.00
16580;BME280;8402;51.466;6.806;2023-12-07T02:31:20;101747.09;;;2.04;100.00
16580;BME280;8402;51.466;6.806;2023-12-07T02:33:50;101747.59;;;2.01;100.00
16580;BME280;8402;51.466;6.806;2023-12-07T02:36:22;101744.31;;;1.99;100.00
16580;BME280;8402;51.466;6.806;2023-12-07T02:38:56;101743.25;;;2.00;100.00
16580;BME280;8402;51.466;6.806;2023-12-07T02:41:30;101739.31;;;2.02;100.00
16580;BME280;8402;51.466;6.806;2023-12-07T02:44:04;101742.22;;;2.01;100.00
16580;BME280;8402;51.466;6.806;2023-12-07T02:46:34;101743.84;;;2.02;100.00
16580;BME280;8402;51.466;6.806;2023-12-07T02:49:04;101749.22;;;2.02;100.00
16580;BME280;8402;51.466;6.806;2023-12-07T02:51:34;101744.66;;;2.02;100.00
16580;BME280;8402;51.466;6.806;2023-12-07T02:54:04;101736.63;;;2.02;100.00
16580;BME280;8402;51.466;6.806;2023-12-07T02:56:34;101730.72;;;2.00;100.00
16580;BME280;8402;51.466;6.806;2023-12-07T02:59:07;101731.97;;;1.98;100.00
16580;BME280;8402;51.466;6.806;2023-12-07T03:01:36;101733.03;;;1.97;100.00
16580;BME280;8402;51.466;6.806;2023-12-07T03:04:07;101729.78;;;1.95;100.00
16580;BME280;8402;51.466;6.806;2023-12-07T03:06:37;101732.44;;;1.95;100.00
16580;BME280;8402;51.466;6.806;2023-12-07T03:09:07;101727.09;;;1.95;100.00
16580;BME280;8402;51.466;6.806;2023-12-07T03:11:37;101725.22;;;1.95;100.00
16580;BME280;8402;51.466;6.806;2023-12-07T03:14:10;101736.88;;;2.01;100.00
16580;BME280;8402;51.466;6.806;2023-12-07T03:16:40;101728.94;;;2.06;100.00
16580;BME280;8402;51.466;6.806;2023-12-07T03:19:09;101727.44;;;2.10;100.00
16580;BME280;8402;51.466;6.806;2023-12-07T03:21:40;101724.28;;;2.13;100.00
16580;BME280;8402;51.466;6.806;2023-12-07T03:24:10;101716.84;;;2.15;100.00
16580;BME280;8402;51.466;6.806;2023-12-07T03:26:40;101726.50;;;2.16;100.00
16580;BME280;8402;51.466;6.806;2023-12-07T03:29:12;101725.09;;;2.13;100.00
16580;BME280;8402;51.466;6.806;2023-12-07T03:31:42;101735.00;;;2.13;100.00
16580;BME280;8402;51.466;6.806;2023-12-07T03:34:12;101731.75;;;2.11;100.00
16580;BME280;8402;51.466;6.806;2023-12-07T03:36:44;101739.44;;;2.07;100.00
16580;BME280;8402;51.466;6.806;2023-12-07T03:39:15;101745.00;;;2.06;100.00
16580;BME280;8402;51.466;6.806;2023-12-07T03:41:45;101743.38;;;2.05;100.00
16580;BME280;8402;51.466;6.806;2023-12-07T03:44:18;101740.47;;;2.06;100.00
16580;BME280;8402;51.466;6.806;2023-12-07T03:46:48;101743.50;;;2.10;100.00
16580;BME280;8402;51.466;6.806;2023-12-07T03:49:18;101738.72;;;2.12;100.00
16580;BME280;8402;51.466;6.806;2023-12-07T03:51:48;101736.16;;;2.17;100.00
16580;BME280;8402;51.466;6.806;2023-12-07T03:54:18;101735.38;;;2.16;100.00
16580;BME280;8402;51.466;6.806;2023-12-07T03:56:48;101739.41;;;2.19;100.00
16580;BME280;8402;51.466;6.806;2023-12-07T03:59:21;101738.97;;;2.22;100.00
16580;BME280;8402;51.466;6.806;2023-12-07T04:01:51;101731.03;;;2.27;100.00
16580;BME280;8402;51.466;6.806;2023-12-07T04:04:21;101727.66;;;2.32;100.00
16580;BME280;8402;51.466;6.806;2023-12-07T04:06:53;101738.69;;;2.35;100.00
16580;BME280;8402;51.466;6.806;2023-12-07T04:09:23;101740.69;;;2.40;100.00
16580;BME280;8402;51.466;6.806;2023-12-07T04:11:53;101736.50;;;2.44;100.00
16580;BME280;8402;51.466;6.806;2023-12-07T04:14:26;101733.59;;;2.45;100.00
16580;BME280;8402;51.466;6.806;2023-12-07T04:16:56;101742.19;;;2.47;100.00
16580;BME280;8402;51.466;6.806;2023-12-07T04:19:26;101733.91;;;2.49;100.00
16580;BME280;8402;51.466;6.806;2023-12-07T04:21:55;101731.47;;;2.47;100.00
16580;BME280;8402;51.466;6.806;2023-12-07T04:24:25;101738.13;;;2.45;100.00
16580;BME280;8402;51.466;6.806;2023-12-07T04:26:56;101741.06;;;2.43;100.00
16580;BME280;8402;51.466;6.806;2023-12-07T04:29:28;101741.38;;;2.47;100.00
16580;BME280;8402;51.466;6.806;2023-12-07T04:31:59;101745.44;;;2.49;100.00
16580;BME280;8402;51.466;6.806;2023-12-07T04:34:29;101747.66;;;2.53;100.00
16580;BME280;8402;51.466;6.806;2023-12-07T04:36:59;101755.22;;;2.56;100.00
16580;BME280;8402;51.466;6.806;2023-12-07T04:39:29;101751.03;;;2.60;100.00
16580;BME280;8402;51.466;6.806;2023-12-07T04:41:59;101752.66;;;2.61;100.00
16580;BME280;8402;51.466;6.806;2023-12-07T04:44:32;101749.97;;;2.61;100.00
16580;BME280;8402;51.466;6.806;2023-12-07T04:47:03;101754.53;;;2.60;100.00
16580;BME280;8402;51.466;6.806;2023-12-07T04:49:33;101755.91;;;2.63;100.00
16580;BME280;8402;51.466;6.806;2023-12-07T04:52:04;101753.81;;;2.65;100.00
16580;BME280;8402;51.466;6.806;2023-12-07T04:54:34;101747.41;;;2.66;100.00
16580;BME280;8402;51.466;6.806;2023-12-07T04:57:04;101750.41;;;2.69;100.00
16580;BME280;8402;51.466;6.806;2023-12-07T04:59:37;101756.13;;;2.73;100.00
16580;BME280;8402;51.466;6.806;2023-12-07T05:02:07;101756.22;;;2.78;100.00
16580;BME280;8402;51.466;6.806;2023-12-07T05:04:38;101759.25;;;2.82;100.00
16580;BME280;8402;51.466;6.806;2023-12-07T05:07:08;101757.97;;;2.84;100.00
16580;BME280;8402;51.466;6.806;2023-12-07T05:09:38;101762.06;;;2.87;100.00
16580;BME280;8402;51.466;6.806;2023-12-07T05:12:08;101763.69;;;2.88;100.00
16580;BME280;8402;51.466;6.806;2023-12-07T05:14:41;101768.78;;;2.89;100.00
16580;BME280;8402;51.466;6.806;2023-12-07T05:17:11;101766.69;;;2.91;100.00
16580;BME280;8402;51.466;6.806;2023-12-07T05:19:41;101766.09;;;2.89;100.00
16580;BME280;8402;51.466;6.806;2023-12-07T05:22:11;101763.44;;;2.89;100.00
16580;BME280;8402;51.466;6.806;2023-12-07T05:24:41;101763.44;;;2.89;100.00
16580;BME280;8402;51.466;6.806;2023-12-07T05:27:11;101757.81;;;2.91;100.00
16580;BME280;8402;51.466;6.806;2023-12-07T05:29:44;101772.63;;;2.93;100.00
16580;BME280;8402;51.466;6.806;2023-12-07T05:32:14;101770.78;;;2.94;100.00
16580;BME280;8402;51.466;6.806;2023-12-07T05:34:44;101772.63;;;2.93;100.00
16580;BME280;8402;51.466;6.806;2023-12-07T05:37:14;101771.59;;;2.94;100.00
16580;BME280;8402;51.466;6.806;2023-12-07T05:39:44;101765.97;;;2.96;100.00
16580;BME280;8402;51.466;6.806;2023-12-07T05:42:14;101767.34;;;2.98;100.00
16580;BME280;8402;51.466;6.806;2023-12-07T05:44:48;101761.53;;;3.01;100.00
16580;BME280;8402;51.466;6.806;2023-12-07T05:47:18;101758.38;;;3.04;100.00
16580;BME280;8402;51.466;6.806;2023-12-07T05:49:48;101756.84;;;3.09;100.00
16580;BME280;8402;51.466;6.806;2023-12-07T05:52:18;101752.53;;;3.08;100.00
16580;BME280;8402;51.466;6.806;2023-12-07T05:54:48;101743.44;;;3.09;100.00
16580;BME280;8402;51.466;6.806;2023-12-07T05:57:18;101747.19;;;3.08;100.00
16580;BME280;8402;51.466;6.806;2023-12-07T05:59:51;101752.53;;;3.08;100.00
16580;BME280;8402;51.466;6.806;2023-12-07T06:02:21;101748.81;;;3.09;100.00
16580;BME280;8402;51.466;6.806;2023-12-07T06:04:51;101745.06;;;3.10;100.00
16580;BME280;8402;51.466;6.806;2023-12-07T06:07:21;101742.38;;;3.10;100.00
16580;BME280;8402;51.466;6.806;2023-12-07T06:09:51;101746.13;;;3.09;100.00
16580;BME280;8402;51.466;6.806;2023-12-07T06:12:22;101741.81;;;3.08;100.00
16580;BME280;8402;51.466;6.806;2023-12-07T06:14:59;101744.00;;;3.11;100.00
16580;BME280;8402;51.466;6.806;2023-12-07T06:17:29;101744.81;;;3.11;100.00
16580;BME280;8402;51.466;6.806;2023-12-07T06:20:00;101737.59;;;3.12;100.00
16580;BME280;8402;51.466;6.806;2023-12-07T06:22:30;101737.59;;;3.12;100.00
16580;BME280;8402;51.466;6.806;2023-12-07T06:25:00;101743.50;;;3.14;100.00
16580;BME280;8402;51.466;6.806;2023-12-07T06:27:30;101735.47;;;3.14;100.00
16580;BME280;8402;51.466;6.806;2023-12-07T06:30:05;101731.75;;;3.15;100.00
16580;BME280;8402;51.466;6.806;2023-12-07T06:32:35;101728.03;;;3.16;100.00
16580;BME280;8402;51.466;6.806;2023-12-07T06:35:06;101726.97;;;3.17;100.00
16580;BME280;8402;51.466;6.806;2023-12-07T06:37:37;101723.78;;;3.20;100.00
16580;BME280;8402;51.466;6.806;2023-12-07T06:40:09;101723.31;;;3.23;100.00
16580;BME280;8402;51.466;6.806;2023-12-07T06:42:40;101720.38;;;3.24;100.00
16580;BME280;8402;51.466;6.806;2023-12-07T06:45:12;101728.19;;;3.26;100.00
16580;BME280;8402;51.466;6.806;2023-12-07T06:47:43;101732.50;;;3.27;100.00
16580;BME280;8402;51.466;6.806;2023-12-07T06:50:13;101733.91;;;3.29;100.00
16580;BME280;8402;51.466;6.806;2023-12-07T06:52:43;101727.22;;;3.32;100.00
16580;BME280;8402;51.466;6.806;2023-12-07T06:55:16;101734.22;;;3.33;100.00
16580;BME280;8402;51.466;6.806;2023-12-07T06:57:46;101742.84;;;3.35;100.00
16580;BME280;8402;51.466;6.806;2023-12-07T07:00:19;101736.44;;;3.36;100.00
16580;BME280;8402;51.466;6.806;2023-12-07T07:02:51;101725.72;;;3.36;100.00
16580;BME280;8402;51.466;6.806;2023-12-07T07:05:21;101727.91;;;3.39;100.00
16580;BME280;8402;51.466;6.806;2023-12-07T07:07:52;101729.41;;;3.35;100.00
16580;BME280;8402;51.466;6.806;2023-12-07T07:10:22;101729.41;;;3.35;100.00
16580;BME280;8402;51.466;6.806;2023-12-07T07:12:52;101734.22;;;3.33;100.00
16580;BME280;8402;51.466;6.806;2023-12-07T07:15:25;101729.34;;;3.30;100.00
16580;BME280;8402;51.466;6.806;2023-12-07T07:17:55;101727.72;;;3.29;100.00
16580;BME280;8402;51.466;6.806;2023-12-07T07:20:26;101718.28;;;3.26;100.00
16580;BME280;8402;51.466;6.806;2023-12-07T07:22:55;101715.03;;;3.24;100.00
16580;BME280;8402;51.466;6.806;2023-12-07T07:25:25;101723.31;;;3.23;100.00
16580;BME280;8402;51.466;6.806;2023-12-07T07:27:56;101721.44;;;3.23;100.00
16580;BME280;8402;51.466;6.806;2023-12-07T07:30:28;101724.94;;;3.24;100.00
16580;BME280;8402;51.466;6.806;2023-12-07T07:32:59;101723.31;;;3.23;100.00
16580;BME280;8402;51.466;6.806;2023-12-07T07:35:29;101713.88;;;3.20;100.00
16580;BME280;8402;51.466;6.806;2023-12-07T07:37:59;101726.16;;;3.16;100.00
16580;BME280;8402;51.466;6.806;2023-12-07T07:40:29;101727.22;;;3.15;100.00
16580;BME280;8402;51.466;6.806;2023-12-07T07:42:59;101725.81;;;3.13;100.00
16580;BME280;8402;51.466;6.806;2023-12-07T07:45:32;101725.00;;;3.12;100.00
16580;BME280;8402;51.466;6.806;2023-12-07T07:48:02;101725.22;;;3.11;100.00
16580;BME280;8402;51.466;6.806;2023-12-07T07:50:33;101725.72;;;3.08;100.00
16580;BME280;8402;51.466;6.806;2023-12-07T07:53:03;101727.81;;;3.06;100.00
16580;BME280;8402;51.466;6.806;2023-12-07T07:55:33;101729.94;;;3.03;100.00
16580;BME280;8402;51.466;6.806;2023-12-07T07:58:03;101732.50;;;2.98;100.00
16580;BME280;8402;51.466;6.806;2023-12-07T08:00:36;101730.88;;;2.97;100.00
16580;BME280;8402;51.466;6.806;2023-12-07T08:03:08;101728.44;;;2.96;100.00
16580;BME280;8402;51.466;6.806;2023-12-07T08:05:38;101722.28;;;2.95;100.00
16580;BME280;8402;51.466;6.806;2023-12-07T08:08:08;101719.59;;;2.95;100.00
16580;BME280;8402;51.466;6.806;2023-12-07T08:10:38;101727.88;;;2.94;100.00
16580;BME280;8402;51.466;6.806;2023-12-07T08:13:21;101735.09;;;2.93;100.00
16580;BME280;8402;51.466;6.806;2023-12-07T08:15:54;101736.94;;;2.93;100.00
16580;BME280;8402;51.466;6.806;2023-12-07T08:18:24;101738.34;;;2.95;100.00
16580;BME280;8402;51.466;6.806;2023-12-07T08:20:56;101753.94;;;2.98;100.00
16580;BME280;8402;51.466;6.806;2023-12-07T08:23:26;101757.22;;;3.00;100.00
16580;BME280;8402;51.466;6.806;2023-12-07T08:25:57;101753.50;;;3.01;100.00
16580;BME280;8402;51.466;6.806;2023-12-07T08:28:27;101755.13;;;3.02;100.00
16580;BME280;8402;51.466;6.806;2023-12-07T08:30:59;101746.00;;;3.03;100.00
16580;BME280;8402;51.466;6.806;2023-12-07T08:33:29;101746.81;;;3.04;100.00
16580;BME280;8402;51.466;6.806;2023-12-07T08:36:01;101747.88;;;3.03;100.00
16580;BME280;8402;51.466;6.806;2023-12-07T08:38:31;101744.38;;;3.02;100.00
16580;BME280;8402;51.466;6.806;2023-12-07T08:41:01;101745.19;;;3.03;100.00
16580;BME280;8402;51.466;6.806;2023-12-07T08:43:31;101747.63;;;3.04;100.00
16580;BME280;8402;51.466;6.806;2023-12-07T08:46:04;101754.63;;;3.06;100.00
16580;BME280;8402;51.466;6.806;2023-12-07T08:48:35;101760.59;;;3.08;100.00
16580;BME280;8402;51.466;6.806;2023-12-07T08:51:09;101761.97;;;3.10;100.00
16580;BME280;8402;51.466;6.806;2023-12-07T08:53:39;101765.56;;;3.16;100.00
16580;BME280;8402;51.466;6.806;2023-12-07T08:56:09;101756.22;;;3.18;100.00
16580;BME280;8402;51.466;6.806;2023-12-07T08:58:39;101758.09;;;3.18;100.00
16580;BME280;8402;51.466;6.806;2023-12-07T09:01:12;101751.09;;;3.17;100.00
16580;BME280;8402;51.466;6.806;2023-12-07T09:03:56;101755.41;;;3.18;100.00
16580;BME280;8402;51.466;6.806;2023-12-07T09:06:26;101758.19;;;3.23;100.00
16580;BME280;8402;51.466;6.806;2023-12-07T09:08:56;101752.91;;;3.28;100.00
16580;BME280;8402;51.466;6.806;2023-12-07T09:11:27;101751.94;;;3.34;100.00
16580;BME280;8402;51.466;6.806;2023-12-07T09:13:57;101750.88;;;3.35;100.00
16580;BME280;8402;51.466;6.806;2023-12-07T09:16:30;101742.63;;;3.37;100.00
16580;BME280;8402;51.466;6.806;2023-12-07T09:19:00;101742.38;;;3.38;100.00
16580;BME280;8402;51.466;6.806;2023-12-07T09:21:30;101744.81;;;3.40;100.00
16580;BME280;8402;51.466;6.806;2023-12-07T09:24:00;101754.22;;;3.42;100.00
16580;BME280;8402;51.466;6.806;2023-12-07T09:26:30;101750.50;;;3.43;100.00
16580;BME280;8402;51.466;6.806;2023-12-07T09:29:00;101760.19;;;3.44;100.00
16580;BME280;8402;51.466;6.806;2023-12-07T09:31:32;101756.44;;;3.45;100.00
16580;BME280;8402;51.466;6.806;2023-12-07T09:34:03;101747.91;;;3.48;100.00
16580;BME280;8402;51.466;6.806;2023-12-07T09:36:38;101741.47;;;3.49;100.00
16580;BME280;8402;51.466;6.806;2023-12-07T09:39:08;101741.00;;;3.52;100.00
16580;BME280;8402;51.466;6.806;2023-12-07T09:41:41;101732.47;;;3.55;100.00
16580;BME280;8402;51.466;6.806;2023-12-07T09:44:14;101730.38;;;3.57;100.00
16580;BME280;8402;51.466;6.806;2023-12-07T09:46:47;101729.88;;;3.61;100.00
16580;BME280;8402;51.466;6.806;2023-12-07T09:49:17;101731.03;;;3.65;100.00
16580;BME280;8402;51.466;6.806;2023-12-07T09:51:47;101730.53;;;3.68;100.00
16580;BME280;8402;51.466;6.806;2023-12-07T09:54:20;101728.41;;;3.70;100.00
16580;BME280;8402;51.466;6.806;2023-12-07T09:56:50;101719.88;;;3.73;100.00
16580;BME280;8402;51.466;6.806;2023-12-07T09:59:21;101718.31;;;3.77;100.00
16580;BME280;8402;51.466;6.806;2023-12-07T10:01:54;101718.41;;;3.82;100.00
16580;BME280;8402;51.466;6.806;2023-12-07T10:04:24;101709.38;;;3.88;100.00
16580;BME280;8402;51.466;6.806;2023-12-07T10:06:56;101699.75;;;3.92;100.00
16580;BME280;8402;51.466;6.806;2023-12-07T10:09:26;101703.84;;;3.95;100.00
16580;BME280;8402;51.466;6.806;2023-12-07T10:12:03;101699.03;;;3.97;100.00
16580;BME280;8402;51.466;6.806;2023-12-07T10:14:33;101696.91;;;3.99;100.00
16580;BME280;8402;51.466;6.806;2023-12-07T10:17:06;101692.13;;;4.01;100.00
16580;BME280;8402;51.466;6.806;2023-12-07T10:19:36;101688.66;;;4.05;100.00
16580;BME280;8402;51.466;6.806;2023-12-07T10:22:13;101686.00;;;4.05;100.00
16580;BME280;8402;51.466;6.806;2023-12-07T10:24:43;101691.94;;;4.07;100.00
16580;BME280;8402;51.466;6.806;2023-12-07T10:27:13;101684.44;;;4.09;100.00
16580;BME280;8402;51.466;6.806;2023-12-07T10:29:44;101681.50;;;4.11;100.00
16580;BME280;8402;51.466;6.806;2023-12-07T10:32:18;101673.78;;;4.14;100.00
16580;BME280;8402;51.466;6.806;2023-12-07T10:34:48;101671.09;;;4.14;100.00
16580;BME280;8402;51.466;6.806;2023-12-07T10:37:18;101672.72;;;4.16;100.00
16580;BME280;8402;51.466;6.806;2023-12-07T10:39:49;101657.16;;;4.18;100.00
16580;BME280;8402;51.466;6.806;2023-12-07T10:42:24;101658.78;;;4.19;100.00
16580;BME280;8402;51.466;6.806;2023-12-07T10:44:56;101657.72;;;4.20;100.00
16580;BME280;8402;51.466;6.806;2023-12-07T10:47:32;101649.09;;;4.18;100.00
16580;BME280;8402;51.466;6.806;2023-12-07T10:50:07;101636.22;;;4.20;100.00
16580;BME280;8402;51.466;6.806;2023-12-07T10:52:45;101636.56;;;4.23;100.00
16580;BME280;8402;51.466;6.806;2023-12-07T10:55:18;101629.59;;;4.27;100.00
16580;BME280;8402;51.466;6.806;2023-12-07T10:57:52;101631.00;;;4.30;100.00
16580;BME280;8402;51.466;6.806;2023-12-07T11:00:22;101628.84;;;4.32;100.00
16580;BME280;8402;51.466;6.806;2023-12-07T11:03:14;101632.59;;;4.31;100.00
16580;BME280;8402;51.466;6.806;2023-12-07T11:05:47;101622.97;;;4.35;100.00
16580;BME280;8402;51.466;6.806;2023-12-07T11:08:21;101606.84;;;4.35;100.00
16580;BME280;8402;51.466;6.806;2023-12-07T11:11:01;101611.75;;;4.38;100.00
16580;BME280;8402;51.466;6.806;2023-12-07T11:13:36;101606.91;;;4.40;100.00
16580;BME280;8402;51.466;6.806;2023-12-07T11:16:09;101603.75;;;4.43;100.00
16580;BME280;8402;51.466;6.806;2023-12-07T11:18:42;101593.75;;;4.38;100.00
16580;BME280;8402;51.466;6.806;2023-12-07T11:21:12;101583.28;;;4.42;100.00
16580;BME280;8402;51.466;6.806;2023-12-07T11:23:43;101592.47;;;4.46;100.00
16580;BME280;8402;51.466;6.806;2023-12-07T11:26:12;101583.91;;;4.49;100.00
16580;BME280;8402;51.466;6.806;2023-12-07T11:28:43;101575.84;;;4.49;100.00
16580;BME280;8402;51.466;6.806;2023-12-07T11:31:13;101581.22;;;4.49;100.00
16580;BME280;8402;51.466;6.806;2023-12-07T11:33:46;101572.13;;;4.50;100.00
16580;BME280;8402;51.466;6.806;2023-12-07T11:36:17;101577.50;;;4.50;100.00
16580;BME280;8402;51.466;6.806;2023-12-07T11:42:06;101558.72;;;4.55;100.00
16580;BME280;8402;51.466;6.806;2023-12-07T11:44:37;101557.41;;;4.58;100.00
16580;BME280;8402;51.466;6.806;2023-12-07T11:47:08;101557.41;;;4.58;100.00
16580;BME280;8402;51.466;6.806;2023-12-07T11:49:41;101546.34;;;4.54;100.00
16580;BME280;8402;51.466;6.806;2023-12-07T11:52:15;101549.56;;;4.56;100.00
16580;BME280;8402;51.466;6.806;2023-12-07T11:54:45;101542.09;;;4.58;100.00
16580;BME280;8402;51.466;6.806;2023-12-07T11:57:16;101543.16;;;4.57;100.00
16580;BME280;8402;51.466;6.806;2023-12-07T11:59:47;101537.53;;;4.59;100.00
16580;BME280;8402;51.466;6.806;2023-12-07T12:02:17;101526.44;;;4.55;100.00
16580;BME280;8402;51.466;6.806;2023-12-07T12:04:50;101522.47;;;4.58;100.00
16580;BME280;8402;51.466;6.806;2023-12-07T12:07:21;101518.97;;;4.57;100.00
16580;BME280;8402;51.466;6.806;2023-12-07T12:09:52;101527.56;;;4.59;100.00
16580;BME280;8402;51.466;6.806;2023-12-07T12:12:22;101525.38;;;4.56;100.00
16580;BME280;8402;51.466;6.806;2023-12-07T12:14:53;101525.97;;;4.58;100.00
16580;BME280;8402;51.466;6.806;2023-12-07T12:17:23;101528.06;;;4.56;100.00
16580;BME280;8402;51.466;6.806;2023-12-07T12:19:57;101518.44;;;4.60;100.00
16580;BME280;8402;51.466;6.806;2023-12-07T12:22:27;101523.81;;;4.60;100.00
16580;BME280;8402;51.466;6.806;2023-12-07T12:24:59;101520.06;;;4.61;100.00
16580;BME280;8402;51.466;6.806;2023-12-07T12:27:29;101517.31;;;4.56;100.00
16580;BME280;8402;51.466;6.806;2023-12-07T12:30:01;101520.06;;;4.61;100.00
16580;BME280;8402;51.466;6.806;2023-12-07T12:32:42;101509.63;;;4.65;100.00
16580;BME280;8402;51.466;6.806;2023-12-07T12:35:14;101506.16;;;4.69;100.00
16580;BME280;8402;51.466;6.806;2023-12-07T12:37:47;101505.88;;;4.71;100.00
16580;BME280;8402;51.466;6.806;2023-12-07T12:40:19;101510.22;;;4.72;100.00
16580;BME280;8402;51.466;6.806;2023-12-07T12:42:51;101494.09;;;4.72;100.00
16580;BME280;8402;51.466;6.806;2023-12-07T12:45:23;101485.22;;;4.72;100.00
16580;BME280;8402;51.466;6.806;2023-12-07T12:47:54;101487.91;;;4.72;100.00
16580;BME280;8402;51.466;6.806;2023-12-07T12:50:37;101475.50;;;4.70;100.00
16580;BME280;8402;51.466;6.806;2023-12-07T12:53:09;101475.00;;;4.74;100.00
16580;BME280;8402;51.466;6.806;2023-12-07T12:55:41;101476.63;;;4.75;100.00
16580;BME280;8402;51.466;6.806;2023-12-07T12:58:14;101478.78;;;4.73;100.00
16580;BME280;8402;51.466;6.806;2023-12-07T13:00:44;101475.56;;;4.76;100.00
16580;BME280;8402;51.466;6.806;2023-12-07T13:03:14;101465.88;;;4.75;100.00
16580;BME280;8402;51.466;6.806;2023-12-07T13:05:47;101463.72;;;4.77;100.00
16580;BME280;8402;51.466;6.806;2023-12-07T13:08:17;101458.34;;;4.77;100.00
16580;BME280;8402;51.466;6.806;2023-12-07T13:10:48;101455.41;;;4.78;100.00
16580;BME280;8402;51.466;6.806;2023-12-07T13:13:19;101457.84;;;4.80;100.00
16580;BME280;8402;51.466;6.806;2023-12-07T13:15:49;101456.25;;;4.79;100.00
16580;BME280;8402;51.466;6.806;2023-12-07T13:18:19;101459.47;;;4.81;100.00
16580;BME280;8402;51.466;6.806;2023-12-07T13:20:52;101457.84;;;4.80;100.00
16580;BME280;8402;51.466;6.806;2023-12-07T13:23:22;101451.66;;;4.79;100.00
16580;BME280;8402;51.466;6.806;2023-12-07T13:25:52;101448.19;;;4.79;100.00